createdAt,value
2023-04-01T00:00:50.043Z,98805.06
2023-04-01T00:04:34.636Z,98802.57
2023-04-01T00:08:27.865Z,98797.08
2023-04-01T00:11:54.801Z,98790.10
2023-04-01T00:15:40.922Z,98780.30
2023-04-01T00:19:27.014Z,98778.27
2023-04-01T00:23:21.924Z,98780.77
2023-04-01T00:26:50.255Z,98773.55
2023-04-01T00:30:12.373Z,98775.36
2023-04-01T00:34:12.574Z,98782.56
2023-04-01T00:37:33.040Z,98779.29
2023-04-01T00:41:44.571Z,98769.27
2023-04-01T00:44:56.560Z,98766.68
2023-04-01T00:48:58.248Z,98767.79
2023-04-01T00:52:23.624Z,98771.83
2023-04-01T00:56:27.310Z,98769.64
2023-04-01T00:59:46.729Z,98765.44
2023-04-01T01:03:47.979Z,98773.88
2023-04-01T01:07:18.901Z,98777.63
2023-04-01T01:11:42.615Z,98779.45
2023-04-01T01:14:50.760Z,98782.09
2023-04-01T01:18:54.803Z,98783.46
2023-04-01T01:22:35.581Z,98777.64
2023-04-01T01:26:47.428Z,98781.23
2023-04-01T01:30:38.767Z,98782.46
2023-04-01T01:34:01.919Z,98781.36
2023-04-01T01:38:10.068Z,98781.54
2023-04-01T01:41:43.869Z,98783.27
2023-04-01T01:45:19.340Z,98781.11
2023-04-01T01:48:39.880Z,98774.36
2023-04-01T01:52:41.122Z,98774.62
2023-04-01T01:56:22.057Z,98772.59
2023-04-01T01:59:39.961Z,98772.92
2023-04-01T02:03:41.584Z,98769.52
2023-04-01T02:07:24.158Z,98762.56
2023-04-01T02:10:59.117Z,98758.07
2023-04-01T02:14:38.393Z,98750.04
2023-04-01T02:18:22.802Z,98748.42
2023-04-01T02:21:35.101Z,98742.05
2023-04-01T02:25:14.883Z,98740.00
2023-04-01T02:29:07.226Z,98739.46
2023-04-01T02:32:44.748Z,98737.13
2023-04-01T02:36:05.656Z,98737.02
2023-04-01T02:39:43.502Z,98739.06
2023-04-01T02:43:48.326Z,98743.23
2023-04-01T02:47:23.541Z,98746.80
2023-04-01T02:51:01.432Z,98748.57
2023-04-01T02:54:31.057Z,98747.96
2023-04-01T02:58:08.790Z,98743.84
2023-04-01T03:01:53.478Z,98737.98
2023-04-01T03:05:15.614Z,98741.84
2023-04-01T03:09:08.604Z,98745.73
2023-04-01T03:12:46.390Z,98752.38
2023-04-01T03:16:24.120Z,98755.38
2023-04-01T03:19:48.658Z,98757.88
2023-04-01T03:23:22.190Z,98759.71
2023-04-01T03:27:16.651Z,98766.58
2023-04-01T03:31:05.376Z,98771.86
2023-04-01T03:34:22.141Z,98773.73
2023-04-01T03:38:10.005Z,98776.75
2023-04-01T03:41:44.245Z,98771.42
2023-04-01T03:45:26.684Z,98780.88
2023-04-01T03:49:32.567Z,98782.02
2023-04-01T03:53:05.967Z,98788.05
2023-04-01T03:56:43.675Z,98794.48
2023-04-01T04:00:22.640Z,98797.92
2023-04-01T04:03:42.408Z,98797.54
2023-04-01T04:07:37.806Z,98797.85
2023-04-01T04:11:20.473Z,98801.08
2023-04-01T04:14:42.500Z,98808.10
2023-04-01T04:18:25.099Z,98809.42
2023-04-01T04:22:26.695Z,98810.45
2023-04-01T04:26:05.522Z,98814.38
2023-04-01T04:29:24.553Z,98812.90
2023-04-01T04:33:26.963Z,98814.21
2023-04-01T04:36:48.911Z,98816.84
2023-04-01T04:40:24.946Z,98819.93
2023-04-01T04:44:09.705Z,98823.67
2023-04-01T04:48:10.041Z,98828.65
2023-04-01T04:51:34.976Z,98826.30
2023-04-01T04:55:36.631Z,98824.77
2023-04-01T04:59:14.103Z,98824.39
2023-04-01T05:02:38.875Z,98828.70
2023-04-01T05:06:14.559Z,98833.22
2023-04-01T05:10:14.000Z,98829.24
2023-04-01T05:13:54.619Z,98830.16
2023-04-01T05:17:34.986Z,98832.13
2023-04-01T05:21:10.089Z,98836.90
2023-04-01T05:24:33.717Z,98836.30
2023-04-01T05:28:24.348Z,98835.98
2023-04-01T05:32:02.285Z,98834.10
2023-04-01T05:35:40.263Z,98837.50
2023-04-01T05:39:00.844Z,98841.18
2023-04-01T05:42:44.248Z,98839.15
2023-04-01T05:46:29.311Z,98840.72
2023-04-01T05:51:00.058Z,98835.02
2023-04-01T05:54:34.879Z,98839.77
2023-04-01T05:57:55.121Z,98840.40
2023-04-01T06:02:01.536Z,98843.88
2023-04-01T06:05:20.564Z,98845.59
2023-04-01T06:09:21.330Z,98847.26
2023-04-01T06:13:10.415Z,98845.55
2023-04-01T06:16:27.143Z,98847.10
2023-04-01T06:20:30.099Z,98850.31
2023-04-01T06:23:59.518Z,98853.36
2023-04-01T06:27:18.749Z,98853.05
2023-04-01T06:31:43.430Z,98852.61
2023-04-01T06:34:58.659Z,98853.02
2023-04-01T06:39:04.584Z,98843.55
2023-04-01T06:42:47.461Z,98842.73
2023-04-01T06:46:23.355Z,98845.98
2023-04-01T06:49:51.665Z,98847.06
2023-04-01T06:53:18.752Z,98847.47
2023-04-01T06:57:43.054Z,98848.71
2023-04-01T07:01:20.668Z,98849.42
2023-04-01T07:05:06.070Z,98850.50
2023-04-01T07:08:16.061Z,98848.48
2023-04-01T07:12:24.821Z,98850.90
2023-04-01T07:16:06.162Z,98855.82
2023-04-01T07:19:20.771Z,98851.96
2023-04-01T07:23:28.618Z,98850.02
2023-04-01T07:27:02.115Z,98849.46
2023-04-01T07:31:09.722Z,98849.71
2023-04-01T07:35:01.654Z,98850.86
2023-04-01T07:38:17.674Z,98848.79
2023-04-01T07:42:05.364Z,98851.00
2023-04-01T07:45:28.857Z,98849.71
2023-04-01T07:49:17.940Z,98848.14
2023-04-01T07:53:00.653Z,98843.52
2023-04-01T07:56:42.913Z,98843.17
2023-04-01T08:00:13.803Z,98848.33
2023-04-01T08:03:38.464Z,98849.54
2023-04-01T08:07:48.313Z,98851.05
2023-04-01T08:11:27.666Z,98852.95
2023-04-01T08:15:03.163Z,98853.33
2023-04-01T08:18:41.283Z,98859.43
2023-04-01T08:22:18.163Z,98857.55
2023-04-01T08:25:36.205Z,98865.02
2023-04-01T08:29:36.059Z,98870.27
2023-04-01T08:32:53.158Z,98868.79
2023-04-01T08:36:38.469Z,98877.10
2023-04-01T08:40:44.089Z,98876.14
2023-04-01T08:44:49.784Z,98877.65
2023-04-01T08:48:38.200Z,98880.31
2023-04-01T08:52:00.339Z,98882.79
2023-04-01T08:55:35.304Z,98886.59
2023-04-01T08:59:15.305Z,98882.42
2023-04-01T09:02:52.224Z,98882.38
2023-04-01T09:06:25.278Z,98886.84
2023-04-01T09:10:43.606Z,98883.89
2023-04-01T09:14:09.985Z,98881.60
2023-04-01T09:17:38.900Z,98878.84
2023-04-01T09:21:40.293Z,98877.55
2023-04-01T09:25:22.283Z,98882.66
2023-04-01T09:28:43.205Z,98888.04
2023-04-01T09:32:32.726Z,98886.73
2023-04-01T09:36:04.027Z,98886.14
2023-04-01T09:39:38.978Z,98883.38
2023-04-01T09:43:25.820Z,98882.62
2023-04-01T09:46:56.070Z,98891.33
2023-04-01T09:50:35.947Z,98896.02
2023-04-01T09:54:10.915Z,98901.99
2023-04-01T09:58:11.260Z,98900.50
2023-04-01T10:01:49.437Z,98910.17
2023-04-01T10:05:52.824Z,98913.84
2023-04-01T10:09:16.482Z,98915.23
2023-04-01T10:13:05.836Z,98918.15
2023-04-01T10:16:41.514Z,98928.41
2023-04-01T10:20:17.270Z,98934.35
2023-04-01T10:23:56.357Z,98931.86
2023-04-01T10:27:22.018Z,98936.58
2023-04-01T10:31:06.467Z,98933.96
2023-04-01T10:35:40.199Z,98931.92
2023-04-01T10:38:51.413Z,98929.98
2023-04-01T10:43:28.096Z,98934.29
2023-04-01T10:47:30.565Z,98935.15
2023-04-01T10:51:06.776Z,98932.30
2023-04-01T10:54:22.694Z,98937.21
2023-04-01T10:59:19.254Z,98937.05
2023-04-01T11:03:21.150Z,98937.42
2023-04-01T11:24:04.419Z,98935.61
2023-04-01T11:28:44.932Z,98930.36
2023-04-01T11:31:47.444Z,98930.43
2023-04-01T11:35:25.269Z,98931.09
2023-04-01T11:39:22.934Z,98932.28
2023-04-01T11:43:36.912Z,98929.46
2023-04-01T11:48:01.113Z,98922.58
2023-04-01T11:52:03.439Z,98925.01
2023-04-01T11:55:55.782Z,98925.31
2023-04-01T12:00:15.196Z,98930.16
2023-04-01T12:04:54.818Z,98939.98
2023-04-01T12:08:03.872Z,98937.65
2023-04-01T12:11:22.488Z,98936.71
2023-04-01T12:15:30.956Z,98933.06
2023-04-01T12:19:09.207Z,98935.23
2023-04-01T12:22:54.245Z,98937.02
2023-04-01T12:26:30.751Z,98934.36
2023-04-01T12:30:08.281Z,98936.92
2023-04-01T12:33:55.594Z,98935.70
2023-04-01T12:37:01.724Z,98937.43
2023-04-01T12:41:02.634Z,98937.48
2023-04-01T12:45:19.154Z,98940.55
2023-04-01T12:48:37.816Z,98944.73
2023-04-01T12:52:50.618Z,98943.55
2023-04-01T12:56:14.683Z,98942.09
2023-04-01T13:00:00.289Z,98943.45
2023-04-01T13:03:29.954Z,98949.23
2023-04-01T13:07:33.190Z,98945.95
2023-04-01T13:11:22.809Z,98949.27
2023-04-01T13:15:25.442Z,98959.88
2023-04-01T13:19:10.892Z,98962.67
2023-04-01T13:23:21.272Z,98960.27
2023-04-01T13:26:38.527Z,98963.54
2023-04-01T13:30:28.670Z,98963.81
2023-04-01T13:34:25.415Z,98966.06
2023-04-01T13:38:20.485Z,98973.20
2023-04-01T13:41:41.498Z,98972.02
2023-04-01T13:45:19.541Z,98972.77
2023-04-01T13:49:10.296Z,98975.44
2023-04-01T13:52:54.094Z,98977.98
2023-04-01T13:56:10.874Z,98976.91
2023-04-01T14:00:08.179Z,98981.70
2023-04-01T14:03:58.529Z,98979.77
2023-04-01T14:07:02.612Z,98977.84
2023-04-01T14:11:13.981Z,98974.31
2023-04-01T14:14:31.017Z,98978.90
2023-04-01T14:18:35.209Z,98982.77
2023-04-01T14:22:18.159Z,98984.83
2023-04-01T14:25:51.293Z,98989.77
2023-04-01T14:29:18.973Z,98997.65
2023-04-01T14:33:13.077Z,99001.02
2023-04-01T14:36:58.145Z,99008.65
2023-04-01T14:40:52.064Z,99015.26
2023-04-01T14:44:34.270Z,99021.38
2023-04-01T14:47:48.961Z,99025.15
2023-04-01T14:51:52.248Z,99031.16
2023-04-01T14:55:34.012Z,99030.61
2023-04-01T14:58:52.497Z,99033.66
2023-04-01T15:02:52.579Z,99032.89
2023-04-01T15:06:58.170Z,99045.91
2023-04-01T15:11:22.524Z,99045.71
2023-04-01T15:15:24.757Z,99050.36
2023-04-01T15:18:56.307Z,99053.27
2023-04-01T15:22:39.899Z,99054.77
2023-04-01T15:26:38.595Z,99060.45
2023-04-01T15:30:28.033Z,99070.85
2023-04-01T15:34:26.633Z,99080.57
2023-04-01T15:38:16.953Z,99091.29
2023-04-01T15:41:58.911Z,99100.03
2023-04-01T15:45:51.756Z,99103.16
2023-04-01T15:49:48.823Z,99108.48
2023-04-01T15:53:34.034Z,99112.72
2023-04-01T15:57:13.234Z,99115.52
2023-04-01T16:00:33.004Z,99118.05
2023-04-01T16:04:33.909Z,99127.02
2023-04-01T16:08:54.086Z,99136.19
2023-04-01T16:12:01.659Z,99146.60
2023-04-01T16:15:55.254Z,99156.62
2023-04-01T16:19:32.985Z,99159.01
2023-04-01T16:22:54.653Z,99167.40
2023-04-01T16:26:51.294Z,99169.61
2023-04-01T16:30:22.415Z,99172.80
2023-04-01T16:34:30.694Z,99183.02
2023-04-01T16:37:49.698Z,99190.35
2023-04-01T16:41:37.000Z,99196.87
2023-04-01T16:45:25.661Z,99202.41
2023-04-01T16:49:33.085Z,99207.52
2023-04-01T16:52:50.676Z,99215.50
2023-04-01T16:56:18.278Z,99225.20
2023-04-01T16:59:42.807Z,99231.95
2023-04-01T17:03:28.675Z,99239.43
2023-04-01T17:07:26.237Z,99244.81
2023-04-01T17:11:23.836Z,99246.07
2023-04-01T17:14:54.435Z,99261.56
2023-04-01T17:18:44.896Z,99261.27
2023-04-01T17:22:37.261Z,99266.64
2023-04-01T17:26:28.649Z,99272.32
2023-04-01T17:30:02.100Z,99281.50
2023-04-01T17:34:27.723Z,99283.62
2023-04-01T17:37:43.568Z,99289.19
2023-04-01T17:41:07.728Z,99297.02
2023-04-01T17:44:59.037Z,99302.48
2023-04-01T17:48:48.036Z,99307.02
2023-04-01T17:52:46.628Z,99313.77
2023-04-01T17:56:35.831Z,99326.02
2023-04-01T17:59:58.073Z,99339.05
2023-04-01T18:03:30.470Z,99342.34
2023-04-01T18:07:34.738Z,99349.83
2023-04-01T18:11:41.480Z,99353.77
2023-04-01T18:15:09.515Z,99353.20
2023-04-01T18:19:04.452Z,99358.45
2023-04-01T18:22:38.476Z,99359.14
2023-04-01T18:26:28.274Z,99362.96
2023-04-01T18:30:13.961Z,99370.44
2023-04-01T18:33:47.396Z,99374.73
2023-04-01T18:37:32.814Z,99379.48
2023-04-01T18:41:22.188Z,99384.98
2023-04-01T18:44:56.349Z,99389.35
2023-04-01T18:48:51.843Z,99394.95
2023-04-01T18:52:40.214Z,99396.75
2023-04-01T18:56:31.316Z,99397.38
2023-04-01T18:59:57.056Z,99397.80
2023-04-01T19:03:33.918Z,99407.99
2023-04-01T19:07:48.008Z,99413.21
2023-04-01T19:11:50.690Z,99414.81
2023-04-01T19:15:21.087Z,99422.17
2023-04-01T19:19:19.317Z,99431.42
2023-04-01T19:23:35.536Z,99438.06
2023-04-01T19:27:26.696Z,99441.50
2023-04-01T19:31:42.316Z,99445.27
2023-04-01T19:34:57.015Z,99455.60
2023-04-01T19:38:45.447Z,99458.02
2023-04-01T19:42:26.137Z,99465.08
2023-04-01T19:46:02.844Z,99469.02
2023-04-01T19:50:16.488Z,99474.27
2023-04-01T19:53:32.888Z,99478.30
2023-04-01T19:57:39.854Z,99481.25
2023-04-01T20:00:57.079Z,99486.20
2023-04-01T20:04:44.796Z,99494.25
2023-04-01T20:08:37.629Z,99491.61
2023-04-01T20:12:31.620Z,99499.71
2023-04-01T20:16:17.822Z,99499.65
2023-04-01T20:20:00.958Z,99504.84
2023-04-01T20:24:02.840Z,99508.06
2023-04-01T20:27:37.849Z,99515.15
2023-04-01T20:31:17.531Z,99516.85
2023-04-01T20:35:23.683Z,99523.49
2023-04-01T20:39:40.149Z,99526.94
2023-04-01T20:43:52.161Z,99533.38
2023-04-01T20:47:11.272Z,99535.98
2023-04-01T20:51:00.500Z,99542.56
2023-04-01T20:54:46.178Z,99544.50
2023-04-01T20:58:34.113Z,99545.45
2023-04-01T21:02:27.625Z,99553.48
2023-04-01T21:06:33.844Z,99558.16
2023-04-01T21:10:02.970Z,99563.68
2023-04-01T21:13:58.067Z,99572.20
2023-04-01T21:17:51.184Z,99577.70
2023-04-01T21:21:38.641Z,99580.98
2023-04-01T21:25:31.521Z,99584.05
2023-04-01T21:29:15.644Z,99594.84
2023-04-01T21:32:58.442Z,99603.07
2023-04-01T21:37:13.665Z,99604.65
2023-04-01T21:40:50.353Z,99606.37
2023-04-01T21:44:31.848Z,99609.64
2023-04-01T21:48:33.711Z,99610.27
2023-04-01T21:51:52.438Z,99617.63
2023-04-01T21:56:41.842Z,99622.45
2023-04-01T22:00:14.385Z,99627.53
2023-04-01T22:03:30.691Z,99630.04
2023-04-01T22:07:28.139Z,99631.75
2023-04-01T22:11:00.173Z,99641.80
2023-04-01T22:14:48.081Z,99641.38
2023-04-01T22:18:36.301Z,99643.66
2023-04-01T22:22:49.831Z,99642.87
2023-04-01T22:26:00.742Z,99645.77
2023-04-01T22:29:53.535Z,99649.41
2023-04-01T22:33:43.317Z,99656.16
2023-04-01T22:37:34.310Z,99663.55
2023-04-01T22:41:24.542Z,99668.06
2023-04-01T22:45:26.217Z,99664.30
2023-04-01T22:49:02.812Z,99665.02
2023-04-01T22:52:31.345Z,99669.65
2023-04-01T22:56:16.961Z,99671.26
2023-04-01T22:59:44.776Z,99678.55
2023-04-01T23:03:32.180Z,99680.84
2023-04-01T23:07:06.359Z,99683.80
2023-04-01T23:10:43.882Z,99690.55
2023-04-01T23:14:49.090Z,99700.57
2023-04-01T23:18:14.845Z,99699.45
2023-04-01T23:21:46.206Z,99701.05
2023-04-01T23:25:55.098Z,99704.98
2023-04-01T23:29:19.898Z,99709.75
2023-04-01T23:32:49.878Z,99716.14
2023-04-01T23:36:25.219Z,99717.41
2023-04-01T23:40:02.041Z,99719.90
2023-04-01T23:43:47.393Z,99721.75
2023-04-01T23:47:34.221Z,99724.80
2023-04-01T23:51:23.424Z,99732.61
2023-04-01T23:55:19.503Z,99736.23
2023-04-01T23:59:07.490Z,99739.00
